createdAt,value
2023-05-05T00:01:25.538Z,7.60
2023-05-05T00:03:52.621Z,12.90
2023-05-05T00:06:19.559Z,10.90
2023-05-05T00:08:47.122Z,11.50
2023-05-05T00:11:13.743Z,8.40
2023-05-05T00:13:40.520Z,6.70
2023-05-05T00:16:07.768Z,4.90
2023-05-05T00:18:34.476Z,9.60
2023-05-05T00:21:01.637Z,6.20
2023-05-05T00:23:28.260Z,5.10
2023-05-05T00:25:54.840Z,6.40
2023-05-05T00:28:22.066Z,6.50
2023-05-05T00:30:48.957Z,5.10
2023-05-05T00:33:15.874Z,5.40
2023-05-05T00:35:42.504Z,5.00
2023-05-05T00:38:09.442Z,5.40
2023-05-05T00:40:37.930Z,4.70
2023-05-05T00:43:05.272Z,4.80
2023-05-05T00:45:32.067Z,6.20
2023-05-05T00:48:01.058Z,7.30
2023-05-05T00:50:30.747Z,6.20
2023-05-05T00:53:06.046Z,5.90
2023-05-05T00:55:34.951Z,8.10
2023-05-05T00:58:04.243Z,8.30
2023-05-05T01:00:31.953Z,5.50
2023-05-05T01:02:59.523Z,6.10
2023-05-05T01:05:44.016Z,5.60
2023-05-05T01:08:27.580Z,7.40
2023-05-05T01:11:17.849Z,4.60
2023-05-05T01:14:14.550Z,5.70
2023-05-05T01:17:03.348Z,4.20
2023-05-05T01:19:58.748Z,7.80
2023-05-05T01:22:36.574Z,7.60
2023-05-05T01:28:27.913Z,5.10
2023-05-05T01:31:31.521Z,5.70
2023-05-05T01:34:09.764Z,5.00
2023-05-05T01:36:42.326Z,6.70
2023-05-05T01:39:16.328Z,6.50
2023-05-05T01:41:48.549Z,5.30
2023-05-05T01:44:18.985Z,3.50
2023-05-05T01:46:48.991Z,4.50
2023-05-05T01:49:16.518Z,4.90
2023-05-05T01:51:46.862Z,4.50
2023-05-05T01:54:16.093Z,6.50
2023-05-05T01:56:43.634Z,4.90
2023-05-05T01:59:11.637Z,4.60
2023-05-05T02:04:15.017Z,4.70
2023-05-05T02:06:45.953Z,5.30
2023-05-05T02:09:15.220Z,5.00
2023-05-05T02:11:42.461Z,6.30
2023-05-05T02:14:11.306Z,4.00
2023-05-05T02:16:41.268Z,7.90
2023-05-05T02:19:08.956Z,5.30
2023-05-05T02:21:35.747Z,4.70
2023-05-05T02:24:03.612Z,4.70
2023-05-05T02:26:35.745Z,6.90
2023-05-05T02:29:10.420Z,7.80
2023-05-05T02:31:48.958Z,6.20
2023-05-05T02:34:27.093Z,6.60
2023-05-05T02:37:00.815Z,7.80
2023-05-05T02:39:36.862Z,6.70
2023-05-05T02:42:11.103Z,8.30
2023-05-05T02:44:42.723Z,8.10
2023-05-05T02:47:09.888Z,6.80
2023-05-05T02:49:37.258Z,6.70
2023-05-05T02:52:07.561Z,8.00
2023-05-05T02:54:36.442Z,8.50
2023-05-05T02:57:11.789Z,9.70
2023-05-05T02:59:47.461Z,8.20
2023-05-05T03:02:24.892Z,8.80
2023-05-05T03:05:11.021Z,8.30
2023-05-05T03:07:59.549Z,10.10
2023-05-05T03:10:34.795Z,7.20
2023-05-05T03:13:04.265Z,7.10
2023-05-05T03:15:48.493Z,7.80
2023-05-05T03:18:20.355Z,6.80
2023-05-05T03:20:51.998Z,7.80
2023-05-05T03:23:21.064Z,6.90
2023-05-05T03:25:50.180Z,7.20
2023-05-05T03:28:28.509Z,7.50
2023-05-05T03:30:56.842Z,8.20
2023-05-05T03:33:23.476Z,8.00
2023-05-05T03:35:50.865Z,8.80
2023-05-05T03:38:17.795Z,7.50
2023-05-05T03:40:45.111Z,7.00
2023-05-05T03:43:14.031Z,8.10
2023-05-05T03:45:40.780Z,4.90
2023-05-05T03:48:09.615Z,5.70
2023-05-05T03:50:37.708Z,5.80
2023-05-05T03:53:04.539Z,5.90
2023-05-05T03:55:31.227Z,9.00
2023-05-05T03:57:57.809Z,5.30
2023-05-05T04:00:24.493Z,6.10
2023-05-05T04:02:51.748Z,10.30
2023-05-05T04:05:19.855Z,8.20
2023-05-05T04:07:46.664Z,16.20
2023-05-05T04:10:14.951Z,6.30
2023-05-05T04:12:41.698Z,5.10
2023-05-05T04:15:09.421Z,4.30
2023-05-05T04:17:36.277Z,4.00
2023-05-05T04:20:03.474Z,10.00
2023-05-05T04:22:30.809Z,8.20
2023-05-05T04:24:57.684Z,5.60
2023-05-05T04:27:26.263Z,6.50
2023-05-05T04:29:53.290Z,6.60
2023-05-05T04:32:20.077Z,7.70
2023-05-05T04:34:48.485Z,6.80
2023-05-05T04:37:15.982Z,7.00
2023-05-05T04:39:42.906Z,8.50
2023-05-05T04:42:09.528Z,5.50
2023-05-05T04:44:36.749Z,5.70
2023-05-05T04:47:04.266Z,5.50
2023-05-05T04:49:33.247Z,5.40
2023-05-05T04:51:59.959Z,6.00
2023-05-05T04:54:26.668Z,9.80
2023-05-05T04:56:53.988Z,6.30
2023-05-05T04:59:20.604Z,5.50
2023-05-05T05:01:47.240Z,9.00
2023-05-05T05:04:18.306Z,6.40
2023-05-05T05:06:46.117Z,7.70
2023-05-05T05:11:40.457Z,6.50
2023-05-05T05:14:07.289Z,5.60
2023-05-05T05:16:34.293Z,6.90
2023-05-05T05:19:01.776Z,5.80
2023-05-05T05:21:29.639Z,6.30
2023-05-05T05:23:56.405Z,6.70
2023-05-05T05:26:24.093Z,5.90
2023-05-05T05:28:50.904Z,9.90
2023-05-05T05:31:18.076Z,5.60
2023-05-05T05:33:45.197Z,8.50
2023-05-05T05:36:12.827Z,5.60
2023-05-05T05:38:39.725Z,7.10
2023-05-05T05:41:07.790Z,4.80
2023-05-05T05:43:34.821Z,8.00
2023-05-05T05:46:03.181Z,5.70
2023-05-05T05:48:30.379Z,8.20
2023-05-05T05:50:57.717Z,9.10
2023-05-05T05:53:24.497Z,9.70
2023-05-05T05:55:51.898Z,7.00
2023-05-05T05:58:19.380Z,5.70
2023-05-05T06:00:46.680Z,6.80
2023-05-05T06:03:13.611Z,7.20
2023-05-05T06:05:41.827Z,5.80
2023-05-05T06:08:09.176Z,7.30
2023-05-05T06:10:40.086Z,4.80
2023-05-05T06:13:10.253Z,7.50
2023-05-05T06:15:42.595Z,10.30
2023-05-05T06:18:10.063Z,7.20
2023-05-05T06:20:37.082Z,9.40
2023-05-05T06:23:03.876Z,8.50
2023-05-05T06:25:32.093Z,8.10
2023-05-05T06:27:58.703Z,6.70
2023-05-05T06:30:26.326Z,7.20
2023-05-05T06:32:54.369Z,9.40
2023-05-05T06:35:22.357Z,8.50
2023-05-05T06:40:15.662Z,8.60
2023-05-05T06:42:42.282Z,8.10
2023-05-05T06:45:11.323Z,7.90
2023-05-05T06:47:37.970Z,6.70
2023-05-05T06:50:06.712Z,6.70
2023-05-05T06:52:33.611Z,6.30
2023-05-05T06:55:00.254Z,8.30
2023-05-05T06:57:26.883Z,8.30
2023-05-05T06:59:54.091Z,7.90
2023-05-05T07:02:20.901Z,7.10
2023-05-05T07:04:47.784Z,6.80
2023-05-05T07:07:14.408Z,6.00
2023-05-05T07:09:41.656Z,7.90
2023-05-05T07:12:08.488Z,7.40
2023-05-05T07:14:35.063Z,6.70
2023-05-05T07:17:01.971Z,8.80
2023-05-05T07:19:28.725Z,5.80
2023-05-05T07:21:55.569Z,11.80
2023-05-05T07:24:24.311Z,7.50
2023-05-05T07:26:51.183Z,8.00
2023-05-05T07:29:17.943Z,10.20
2023-05-05T07:31:44.623Z,8.50
2023-05-05T07:34:11.312Z,7.90
2023-05-05T07:36:38.002Z,7.10
2023-05-05T07:39:05.184Z,8.10
2023-05-05T07:41:31.807Z,10.10
2023-05-05T07:43:58.466Z,10.40
2023-05-05T07:46:25.076Z,8.10
2023-05-05T07:48:51.789Z,7.90
2023-05-05T07:51:18.478Z,9.40
2023-05-05T07:53:45.498Z,8.90
2023-05-05T07:56:12.710Z,7.20
2023-05-05T07:58:39.269Z,9.10
2023-05-05T08:01:06.988Z,11.70
2023-05-05T08:03:33.756Z,8.70
2023-05-05T08:06:09.474Z,9.50
2023-05-05T08:08:37.052Z,7.20
2023-05-05T08:11:04.281Z,11.40
2023-05-05T08:13:30.988Z,7.90
2023-05-05T08:15:57.694Z,8.40
2023-05-05T08:18:24.716Z,12.40
2023-05-05T08:20:52.889Z,8.20
2023-05-05T08:23:19.521Z,8.00
2023-05-05T08:25:46.279Z,9.20
2023-05-05T08:28:12.934Z,8.20
2023-05-05T08:30:39.681Z,8.20
2023-05-05T08:33:06.911Z,8.20
2023-05-05T08:35:33.698Z,10.70
2023-05-05T08:38:00.345Z,7.90
2023-05-05T08:40:36.797Z,8.30
2023-05-05T08:43:05.537Z,11.90
2023-05-05T08:45:33.096Z,9.70
2023-05-05T08:48:05.746Z,9.80
2023-05-05T08:50:33.130Z,8.20
2023-05-05T08:53:16.557Z,9.50
2023-05-05T08:55:52.307Z,6.70
2023-05-05T08:58:19.683Z,6.80
2023-05-05T09:00:46.773Z,9.50
2023-05-05T09:03:14.878Z,9.50
2023-05-05T09:05:43.907Z,9.80
2023-05-05T09:08:11.608Z,8.60
2023-05-05T09:10:41.949Z,9.80
2023-05-05T09:13:09.108Z,9.50
2023-05-05T09:15:38.818Z,8.50
2023-05-05T09:18:09.119Z,10.20
2023-05-05T09:20:38.370Z,9.90
2023-05-05T09:23:14.770Z,11.20
2023-05-05T09:25:46.368Z,9.00
2023-05-05T09:28:18.101Z,11.00
2023-05-05T09:30:47.222Z,10.70
2023-05-05T09:33:14.183Z,9.20
2023-05-05T09:35:55.723Z,9.60
2023-05-05T09:38:24.707Z,8.60
2023-05-05T09:40:53.620Z,11.30
2023-05-05T09:43:24.010Z,8.30
2023-05-05T09:45:51.638Z,9.80
2023-05-05T09:48:30.776Z,9.10
2023-05-05T09:50:59.559Z,13.00
2023-05-05T09:53:27.182Z,7.90
2023-05-05T09:55:59.852Z,11.00
2023-05-05T09:58:29.466Z,10.80
2023-05-05T10:00:58.255Z,12.00
2023-05-05T10:03:26.077Z,10.00
2023-05-05T10:05:59.627Z,9.20
2023-05-05T10:08:30.581Z,10.30
2023-05-05T10:11:01.060Z,9.00
2023-05-05T10:13:28.169Z,10.70
2023-05-05T10:15:57.781Z,9.30
2023-05-05T10:18:27.771Z,9.90
2023-05-05T10:21:00.651Z,8.60
2023-05-05T10:23:48.797Z,8.00
2023-05-05T10:26:19.516Z,8.70
2023-05-05T10:28:55.057Z,10.80
2023-05-05T10:31:34.180Z,10.30
2023-05-05T10:34:09.106Z,8.90
2023-05-05T10:36:39.229Z,9.30
2023-05-05T10:39:10.728Z,6.40
2023-05-05T10:41:37.948Z,7.90
2023-05-05T10:44:06.733Z,10.40
2023-05-05T10:46:33.752Z,9.10
2023-05-05T10:49:46.871Z,9.00
2023-05-05T10:52:59.275Z,7.10
2023-05-05T10:55:47.737Z,8.80
2023-05-05T10:58:41.095Z,7.30
2023-05-05T11:01:31.060Z,9.50
2023-05-05T11:04:24.128Z,9.50
2023-05-05T11:07:11.829Z,8.60
2023-05-05T11:10:01.605Z,9.10
2023-05-05T11:12:34.591Z,14.40
2023-05-05T11:15:27.637Z,8.90
2023-05-05T11:17:57.167Z,8.50
2023-05-05T11:20:39.944Z,8.40
2023-05-05T11:23:06.861Z,8.20
2023-05-05T11:25:37.241Z,10.40
2023-05-05T11:28:16.858Z,12.40
2023-05-05T11:30:56.275Z,8.60
2023-05-05T11:33:30.333Z,11.70
2023-05-05T11:36:00.022Z,9.00
2023-05-05T11:38:41.287Z,8.80
2023-05-05T11:41:30.855Z,10.30
2023-05-05T11:44:15.444Z,9.50
2023-05-05T11:46:51.381Z,10.10
2023-05-05T11:49:29.446Z,7.50
2023-05-05T11:52:00.566Z,9.00
2023-05-05T11:54:27.968Z,8.90
2023-05-05T11:56:59.360Z,9.90
2023-05-05T11:59:26.087Z,9.70
2023-05-05T12:01:53.008Z,10.70
2023-05-05T12:04:20.670Z,9.60
2023-05-05T12:06:48.967Z,9.00
2023-05-05T12:09:21.991Z,9.20
2023-05-05T12:12:00.853Z,8.80
2023-05-05T12:14:27.604Z,10.40
2023-05-05T12:17:08.272Z,9.40
2023-05-05T12:19:36.144Z,7.40
2023-05-05T12:22:04.734Z,9.20
2023-05-05T12:24:31.773Z,10.20
2023-05-05T12:27:12.114Z,9.40
2023-05-05T12:29:39.191Z,11.80
2023-05-05T12:32:06.183Z,11.30
2023-05-05T12:34:33.341Z,8.30
2023-05-05T12:37:01.556Z,11.30
2023-05-05T12:39:37.300Z,10.40
2023-05-05T12:42:05.228Z,7.30
2023-05-05T12:44:36.590Z,8.60
2023-05-05T12:47:03.964Z,7.40
2023-05-05T12:49:34.066Z,9.20
2023-05-05T12:52:01.130Z,6.30
2023-05-05T12:54:30.668Z,7.30
2023-05-05T12:56:58.638Z,8.00
2023-05-05T12:59:25.180Z,9.50
2023-05-05T13:01:53.800Z,9.40
2023-05-05T13:04:23.772Z,8.10
2023-05-05T13:07:11.713Z,8.40
2023-05-05T13:09:39.135Z,8.10
2023-05-05T13:12:08.400Z,10.40
2023-05-05T13:14:36.293Z,8.80
2023-05-05T13:17:03.297Z,10.40
2023-05-05T13:19:30.654Z,8.70
2023-05-05T13:21:58.668Z,9.30
2023-05-05T13:24:37.886Z,9.10
2023-05-05T13:27:09.579Z,7.00
2023-05-05T13:29:36.528Z,11.20
2023-05-05T13:32:03.272Z,7.40
2023-05-05T13:34:29.963Z,8.20
2023-05-05T13:36:56.806Z,6.90
2023-05-05T13:39:23.481Z,8.80
2023-05-05T13:41:50.524Z,8.10
2023-05-05T13:44:17.489Z,8.00
2023-05-05T13:46:44.132Z,6.80
2023-05-05T13:49:11.260Z,7.40
2023-05-05T13:51:39.056Z,9.70
2023-05-05T13:54:07.183Z,8.50
2023-05-05T13:56:34.773Z,7.00
2023-05-05T13:59:02.484Z,7.80
2023-05-05T14:01:30.193Z,7.80
2023-05-05T14:03:57.875Z,8.50
2023-05-05T14:06:25.998Z,9.50
2023-05-05T14:08:52.969Z,7.60
2023-05-05T14:11:20.801Z,8.30
2023-05-05T14:13:48.244Z,10.00
2023-05-05T14:18:42.475Z,8.60
2023-05-05T14:21:09.716Z,10.30
2023-05-05T14:23:36.396Z,9.70
2023-05-05T14:26:03.136Z,9.10
2023-05-05T14:28:29.777Z,8.70
2023-05-05T14:30:56.683Z,10.30
2023-05-05T14:33:23.389Z,10.90
2023-05-05T14:35:50.165Z,11.80
2023-05-05T14:38:17.424Z,9.00
2023-05-05T14:40:44.324Z,14.50
2023-05-05T14:43:11.226Z,10.90
2023-05-05T14:45:37.951Z,9.80
2023-05-05T14:48:04.867Z,10.00
2023-05-05T14:50:31.610Z,9.90
2023-05-05T14:52:58.252Z,9.20
2023-05-05T14:55:25.120Z,10.60
2023-05-05T14:57:52.059Z,11.60
2023-05-05T15:00:19.263Z,8.90
2023-05-05T15:02:48.161Z,9.60
2023-05-05T15:05:15.593Z,7.20
2023-05-05T15:07:42.304Z,9.70
2023-05-05T15:10:09.758Z,9.60
2023-05-05T15:15:03.744Z,8.90
2023-05-05T15:17:31.785Z,10.50
2023-05-05T15:19:58.632Z,8.70
2023-05-05T15:22:25.328Z,8.20
2023-05-05T15:24:51.886Z,8.00
2023-05-05T15:27:18.578Z,8.00
2023-05-05T15:29:45.333Z,7.90
2023-05-05T15:32:12.329Z,7.20
2023-05-05T15:34:39.111Z,7.70
2023-05-05T15:37:05.738Z,7.40
2023-05-05T15:39:32.343Z,8.30
2023-05-05T15:42:03.939Z,8.00
2023-05-05T15:44:31.774Z,7.60
2023-05-05T15:46:58.474Z,6.70
2023-05-05T15:49:25.057Z,9.20
2023-05-05T15:51:51.702Z,12.40
2023-05-05T15:54:18.862Z,8.40
2023-05-05T15:56:45.465Z,9.60
2023-05-05T15:59:12.311Z,6.20
2023-05-05T16:01:39.068Z,5.80
2023-05-05T16:04:05.800Z,6.60
2023-05-05T16:06:32.613Z,6.20
2023-05-05T16:08:59.349Z,9.20
2023-05-05T16:11:27.100Z,7.10
2023-05-05T16:13:54.132Z,6.60
2023-05-05T16:16:21.739Z,11.10
2023-05-05T16:18:48.718Z,8.80
2023-05-05T16:21:15.406Z,9.00
2023-05-05T16:23:42.107Z,6.40
2023-05-05T16:26:08.819Z,5.90
2023-05-05T16:28:35.496Z,8.30
2023-05-05T16:31:02.423Z,6.30
2023-05-05T16:33:29.654Z,8.30
2023-05-05T16:35:57.090Z,6.70
2023-05-05T16:38:23.761Z,6.40
2023-05-05T16:40:50.575Z,7.80
2023-05-05T16:43:17.274Z,7.80
2023-05-05T16:45:44.022Z,5.00
2023-05-05T16:48:10.948Z,7.30
2023-05-05T16:50:37.512Z,8.20
2023-05-05T16:53:04.203Z,6.20
2023-05-05T16:55:31.427Z,6.60
2023-05-05T16:57:57.962Z,5.90
2023-05-05T17:00:24.611Z,7.90
2023-05-05T17:02:51.209Z,7.10
2023-05-05T17:05:17.922Z,7.70
2023-05-05T17:07:44.921Z,7.20
2023-05-05T17:10:11.850Z,8.20
2023-05-05T17:12:38.506Z,6.60
2023-05-05T17:15:06.931Z,6.60
2023-05-05T17:17:34.357Z,6.80
2023-05-05T17:20:04.575Z,10.00
2023-05-05T17:22:32.017Z,7.30
2023-05-05T17:24:58.664Z,7.80
2023-05-05T17:27:25.300Z,10.00
2023-05-05T17:29:51.937Z,6.90
2023-05-05T17:32:18.592Z,7.00
2023-05-05T17:34:45.236Z,6.60
2023-05-05T17:37:11.901Z,6.00
2023-05-05T17:39:38.494Z,7.70
2023-05-05T17:42:05.489Z,8.50
2023-05-05T17:44:32.692Z,5.40
2023-05-05T17:46:59.404Z,8.20
2023-05-05T17:49:26.324Z,4.80
2023-05-05T17:51:53.013Z,4.60
2023-05-05T17:54:19.625Z,5.60
2023-05-05T17:56:46.893Z,6.80
2023-05-05T17:59:13.543Z,5.80
2023-05-05T18:01:40.237Z,7.90
2023-05-05T18:04:07.213Z,6.90
2023-05-05T18:06:34.243Z,6.80
2023-05-05T18:09:00.834Z,6.40
2023-05-05T18:11:29.072Z,6.60
2023-05-05T18:13:56.341Z,5.90
2023-05-05T18:16:22.998Z,7.60
2023-05-05T18:18:49.685Z,10.90
2023-05-05T18:21:16.451Z,7.90
2023-05-05T18:23:43.042Z,11.10
2023-05-05T18:26:09.689Z,11.40
2023-05-05T18:28:37.584Z,10.90
2023-05-05T18:33:31.058Z,7.70
2023-05-05T18:35:57.918Z,8.10
2023-05-05T18:38:24.757Z,6.70
2023-05-05T18:40:51.430Z,6.60
2023-05-05T18:43:18.085Z,10.40
2023-05-05T18:45:44.791Z,7.00
2023-05-05T18:48:11.693Z,5.50
2023-05-05T18:50:38.541Z,7.30
2023-05-05T18:53:05.385Z,9.30
2023-05-05T18:55:31.943Z,8.50
2023-05-05T18:57:58.563Z,6.70
2023-05-05T19:00:25.209Z,8.20
2023-05-05T19:02:51.951Z,7.70
2023-05-05T19:05:18.798Z,8.50
2023-05-05T19:07:45.771Z,7.50
2023-05-05T19:10:12.772Z,8.00
2023-05-05T19:12:39.361Z,8.30
2023-05-05T19:15:08.335Z,8.10
2023-05-05T19:17:35.136Z,8.60
2023-05-05T19:20:03.044Z,8.90
2023-05-05T19:24:56.241Z,7.90
2023-05-05T19:27:22.869Z,8.00
2023-05-05T19:29:52.341Z,10.20
2023-05-05T19:32:21.042Z,9.20
2023-05-05T19:34:48.011Z,10.50
2023-05-05T19:37:14.660Z,10.90
2023-05-05T19:39:44.282Z,7.70
2023-05-05T19:42:11.728Z,10.80
2023-05-05T19:44:38.361Z,12.60
2023-05-05T19:47:05.427Z,17.50
2023-05-05T19:49:32.043Z,16.00
2023-05-05T19:51:59.096Z,20.90
2023-05-05T19:54:26.710Z,35.50
2023-05-05T19:56:55.234Z,34.70
2023-05-05T19:59:22.104Z,20.00
2023-05-05T20:01:48.915Z,17.40
2023-05-05T20:04:15.668Z,13.10
2023-05-05T20:06:42.382Z,10.40
2023-05-05T20:09:09.202Z,8.60
2023-05-05T20:11:35.953Z,7.30
2023-05-05T20:14:02.620Z,6.40
2023-05-05T20:16:29.610Z,6.60
2023-05-05T20:18:56.438Z,10.20
2023-05-05T20:21:23.265Z,25.70
2023-05-05T20:23:50.084Z,29.60
2023-05-05T20:26:17.086Z,39.60
2023-05-05T20:28:45.217Z,33.00
2023-05-05T20:31:14.622Z,30.00
2023-05-05T20:33:41.267Z,15.60
2023-05-05T20:36:08.334Z,13.40
2023-05-05T20:38:34.996Z,10.60
2023-05-05T20:41:01.676Z,9.10
2023-05-05T20:43:28.403Z,8.60
2023-05-05T20:45:55.178Z,6.00
2023-05-05T20:48:21.805Z,9.60
2023-05-05T20:50:48.446Z,9.10
2023-05-05T20:53:18.806Z,9.70
2023-05-05T20:55:45.459Z,9.60
2023-05-05T20:58:12.575Z,7.80
2023-05-05T21:00:39.447Z,8.80
2023-05-05T21:03:06.320Z,6.50
2023-05-05T21:05:33.302Z,7.20
2023-05-05T21:08:01.021Z,7.20
2023-05-05T21:10:33.107Z,7.10
2023-05-05T21:13:02.266Z,7.70
2023-05-05T21:15:29.203Z,8.70
2023-05-05T21:17:57.223Z,9.50
2023-05-05T21:20:24.272Z,7.20
2023-05-05T21:22:51.084Z,11.40
2023-05-05T21:25:22.364Z,8.20
2023-05-05T21:27:49.709Z,7.10
2023-05-05T21:30:17.489Z,7.90
2023-05-05T21:32:44.889Z,6.10
2023-05-05T21:35:11.783Z,7.40
2023-05-05T21:37:39.387Z,7.70
2023-05-05T21:42:37.699Z,6.10
2023-05-05T21:45:05.007Z,8.50
2023-05-05T21:47:31.685Z,7.80
2023-05-05T21:49:59.116Z,7.20
2023-05-05T21:52:25.789Z,5.30
2023-05-05T21:54:52.425Z,7.40
2023-05-05T21:57:19.019Z,12.00
2023-05-05T21:59:45.657Z,6.50
2023-05-05T22:02:12.402Z,6.10
2023-05-05T22:04:38.996Z,6.80
2023-05-05T22:07:05.909Z,5.00
2023-05-05T22:09:32.567Z,5.00
2023-05-05T22:11:59.154Z,6.20
2023-05-05T22:14:25.783Z,6.40
2023-05-05T22:16:52.361Z,6.10
2023-05-05T22:19:18.950Z,5.80
2023-05-05T22:21:45.596Z,7.10
2023-05-05T22:24:12.220Z,6.70
2023-05-05T22:26:43.170Z,5.90
2023-05-05T22:29:11.250Z,7.60
2023-05-05T22:31:38.230Z,8.70
2023-05-05T22:34:05.246Z,9.50
2023-05-05T22:36:32.088Z,9.60
2023-05-05T22:38:59.102Z,9.10
2023-05-05T22:41:26.220Z,7.40
2023-05-05T22:43:52.926Z,9.30
2023-05-05T22:46:19.611Z,5.60
2023-05-05T22:48:46.621Z,5.90
2023-05-05T22:51:13.476Z,4.90
2023-05-05T22:53:40.268Z,4.90
2023-05-05T22:56:07.380Z,3.00
2023-05-05T22:58:34.018Z,3.70
2023-05-05T23:01:00.740Z,4.00
2023-05-05T23:03:27.389Z,5.80
2023-05-05T23:05:53.972Z,5.00
2023-05-05T23:08:21.016Z,3.80
2023-05-05T23:10:47.614Z,1.00
2023-05-05T23:13:14.279Z,1.50
2023-05-05T23:15:41.552Z,3.40
2023-05-05T23:18:08.186Z,2.40
2023-05-05T23:20:34.878Z,3.70
2023-05-05T23:23:01.493Z,1.70
2023-05-05T23:25:28.073Z,2.60
2023-05-05T23:27:54.692Z,1.30
2023-05-05T23:30:21.513Z,2.10
2023-05-05T23:32:48.212Z,1.90
2023-05-05T23:35:15.275Z,1.70
2023-05-05T23:37:41.839Z,1.10
2023-05-05T23:40:09.240Z,2.30
2023-05-05T23:42:35.852Z,2.30
2023-05-05T23:45:03.158Z,1.60
2023-05-05T23:47:29.806Z,1.60
2023-05-05T23:49:56.472Z,1.50
2023-05-05T23:52:23.346Z,0.80
2023-05-05T23:54:49.907Z,1.30
2023-05-05T23:57:16.579Z,1.50
2023-05-05T23:59:43.211Z,1.40
